Time;durP1;ratioP1;P1;durP2;ratioP2;P2;SDS_P1;SDS_P2;PMS_P1;PMS_P2;Temp;Humidity;BMP_temperature;BMP_pressure;BME280_temperature;BME280_humidity;BME280_pressure;Samples;Min_cycle;Max_cycle;Signal;HPM_P1;HPM_P2
2021/11/09 00:01:57;;;;;;;29.00;17.50;;;;;;;;;;4967202;28;20047;-67
2021/11/09 00:04:29;;;;;;;35.75;21.08;;;;;;;;;;4968014;28;20384;-67
2021/11/09 00:07:05;;;;;;;37.90;19.42;;;;;;;;;;4967974;28;20045;-67
2021/11/09 00:09:44;;;;;;;35.90;21.13;;;;;;;;;;4963682;28;20495;-67
2021/11/09 00:12:10;;;;;;;35.25;20.17;;;;;;;;;;4967175;28;20062;-67
2021/11/09 00:14:37;;;;;;;39.28;21.50;;;;;;;;;;4970730;28;20026;-67
2021/11/09 00:17:03;;;;;;;33.88;19.73;;;;;;;;;;4970175;28;20023;-67
2021/11/09 00:19:29;;;;;;;28.17;19.45;;;;;;;;;;4970025;28;20026;-67
2021/11/09 00:21:55;;;;;;;47.63;21.27;;;;;;;;;;4972833;28;20027;-67
2021/11/09 00:24:21;;;;;;;43.97;22.55;;;;;;;;;;4969179;28;20046;-67
2021/11/09 00:26:47;;;;;;;38.25;21.52;;;;;;;;;;4968525;28;20042;-67
2021/11/09 00:29:13;;;;;;;38.78;19.92;;;;;;;;;;4968394;28;20102;-67
2021/11/09 00:31:39;;;;;;;40.65;20.58;;;;;;;;;;4965265;28;20034;-67
2021/11/09 00:34:05;;;;;;;35.40;20.73;;;;;;;;;;4969895;28;20041;-67
2021/11/09 00:36:31;;;;;;;39.72;20.58;;;;;;;;;;4966101;28;20050;-66
2021/11/09 00:38:57;;;;;;;46.53;21.85;;;;;;;;;;4968877;28;20089;-67
2021/11/09 00:41:24;;;;;;;37.97;22.23;;;;;;;;;;4970410;28;20042;-67
2021/11/09 00:43:50;;;;;;;31.95;22.25;;;;;;;;;;4969839;28;20035;-67
2021/11/09 00:46:16;;;;;;;34.65;21.45;;;;;;;;;;4970952;28;20029;-67
2021/11/09 00:48:43;;;;;;;41.72;22.38;;;;;;;;;;4969620;28;20030;-67
2021/11/09 00:51:09;;;;;;;41.75;24.35;;;;;;;;;;4969841;28;20042;-67
2021/11/09 00:53:35;;;;;;;40.33;23.85;;;;;;;;;;4968663;28;20427;-67
2021/11/09 00:56:01;;;;;;;45.17;24.30;;;;;;;;;;4964467;28;20041;-67
2021/11/09 00:58:27;;;;;;;38.95;23.30;;;;;;;;;;4969435;28;20027;-67
2021/11/09 01:00:53;;;;;;;46.75;24.10;;;;;;;;;;4969554;28;20463;-67
2021/11/09 01:03:19;;;;;;;41.40;24.25;;;;;;;;;;4978261;28;20411;-67
2021/11/09 01:05:45;;;;;;;39.25;23.90;;;;;;;;;;4973950;28;20396;-66
2021/11/09 01:08:15;;;;;;;41.00;23.52;;;;;;;;;;4971656;28;20623;-67
2021/11/09 01:10:43;;;;;;;43.42;22.30;;;;;;;;;;4972523;28;20031;-67
2021/11/09 01:13:09;;;;;;;47.42;24.48;;;;;;;;;;4973834;28;20495;-67
2021/11/09 01:15:36;;;;;;;40.90;23.83;;;;;;;;;;4970397;28;20045;-67
2021/11/09 01:18:03;;;;;;;36.47;22.10;;;;;;;;;;4973064;28;20095;-67
2021/11/09 01:20:29;;;;;;;41.85;23.20;;;;;;;;;;4973657;28;20144;-67
2021/11/09 01:22:57;;;;;;;46.42;24.90;;;;;;;;;;4972825;28;20391;-67
2021/11/09 01:25:24;;;;;;;37.88;24.45;;;;;;;;;;4974136;28;20522;-67
2021/11/09 01:27:50;;;;;;;37.97;22.55;;;;;;;;;;4964016;28;20031;-67
2021/11/09 01:30:19;;;;;;;42.90;23.60;;;;;;;;;;4971246;28;20053;-67
2021/11/09 01:32:45;;;;;;;36.58;23.08;;;;;;;;;;4971852;28;20301;-66
2021/11/09 01:35:11;;;;;;;52.80;23.30;;;;;;;;;;4973723;28;20034;-67
2021/11/09 01:37:38;;;;;;;39.40;23.55;;;;;;;;;;4972223;28;20037;-67
2021/11/09 01:40:06;;;;;;;47.67;22.30;;;;;;;;;;4970543;28;20093;-67
2021/11/09 01:42:32;;;;;;;44.65;22.27;;;;;;;;;;4972681;28;20034;-67
2021/11/09 01:44:58;;;;;;;36.65;22.17;;;;;;;;;;4970434;28;20037;-66
2021/11/09 01:47:24;;;;;;;40.22;24.13;;;;;;;;;;4973842;28;20521;-67
2021/11/09 01:49:50;;;;;;;53.42;23.98;;;;;;;;;;4971665;28;20045;-67
2021/11/09 01:52:16;;;;;;;49.20;25.77;;;;;;;;;;4972470;28;20026;-67
2021/11/09 01:54:42;;;;;;;43.45;22.85;;;;;;;;;;4972441;28;20054;-67
2021/11/09 01:57:09;;;;;;;41.53;23.88;;;;;;;;;;4972477;28;20022;-67
2021/11/09 01:59:35;;;;;;;48.88;24.52;;;;;;;;;;4968602;28;20061;-67
2021/11/09 02:02:01;;;;;;;43.55;23.17;;;;;;;;;;4970911;28;20438;-66
2021/11/09 02:04:27;;;;;;;57.70;24.45;;;;;;;;;;4972868;28;20027;-67
2021/11/09 02:06:53;;;;;;;41.00;24.77;;;;;;;;;;4971303;28;20029;-67
2021/11/09 02:09:20;;;;;;;57.72;23.95;;;;;;;;;;4972128;28;20120;-67
2021/11/09 02:11:47;;;;;;;45.40;21.88;;;;;;;;;;4971431;28;20023;-67
2021/11/09 02:14:13;;;;;;;49.25;23.13;;;;;;;;;;4972432;28;20046;-67
2021/11/09 02:16:39;;;;;;;40.90;22.30;;;;;;;;;;4972607;28;20027;-67
2021/11/09 02:19:06;;;;;;;43.00;22.73;;;;;;;;;;4971582;28;20045;-67
2021/11/09 02:21:33;;;;;;;46.13;22.63;;;;;;;;;;4971802;28;20050;-67
2021/11/09 02:24:00;;;;;;;38.67;23.83;;;;;;;;;;4970740;28;20065;-67
2021/11/09 02:26:26;;;;;;;43.38;24.20;;;;;;;;;;4972499;28;20030;-67
2021/11/09 02:28:55;;;;;;;40.90;21.83;;;;;;;;;;4969708;28;20118;-67
2021/11/09 02:31:21;;;;;;;48.10;23.27;;;;;;;;;;4971118;28;20039;-67
2021/11/09 02:33:48;;;;;;;40.40;22.40;;;;;;;;;;4971280;28;20026;-67
2021/11/09 02:36:14;;;;;;;41.47;20.92;;;;;;;;;;4970818;28;20022;-67
2021/11/09 02:38:40;;;;;;;42.10;20.85;;;;;;;;;;4969905;28;20045;-67
2021/11/09 02:41:06;;;;;;;36.28;21.90;;;;;;;;;;4971573;28;20031;-67
2021/11/09 02:43:33;;;;;;;38.45;21.95;;;;;;;;;;4971372;28;20034;-67
2021/11/09 02:48:32;;;;;;;49.38;21.50;;;;;;;;;;4970345;28;20444;-67
2021/11/09 02:51:04;;;;;;;37.85;21.48;;;;;;;;;;4966085;28;20050;-67
2021/11/09 02:56:05;;;;;;;43.35;22.27;;;;;;;;;;4972500;28;20459;-67
2021/11/09 03:04:12;;;;;;;36.28;23.70;;;;;;;;;;4969074;28;20037;-67
2021/11/09 03:06:44;;;;;;;44.05;22.27;;;;;;;;;;4970831;28;20030;-67
2021/11/09 03:09:15;;;;;;;39.67;21.60;;;;;;;;;;4969774;28;20019;-67
2021/11/09 03:12:04;;;;;;;37.35;20.25;;;;;;;;;;4974852;28;20035;-67
2021/11/09 03:14:28;;;;;;;40.55;20.92;;;;;;;;;;4970183;28;20031;-67
2021/11/09 03:16:58;;;;;;;45.60;22.20;;;;;;;;;;4971989;28;20038;-67
2021/11/09 03:19:37;;;;;;;39.60;22.67;;;;;;;;;;4970259;28;20034;-67
2021/11/09 03:46:48;;;;;;;40.03;23.15;;;;;;;;;;4971051;28;20043;-68
2021/11/09 03:49:15;;;;;;;39.53;22.98;;;;;;;;;;4968637;28;20026;-68
2021/11/09 03:51:42;;;;;;;39.08;23.52;;;;;;;;;;4970103;28;20018;-68
2021/11/09 03:54:14;;;;;;;51.05;24.83;;;;;;;;;;4971663;28;20115;-68
2021/11/09 03:59:13;;;;;;;42.03;23.38;;;;;;;;;;4968880;28;20042;-68
2021/11/09 04:01:48;;;;;;;48.75;25.83;;;;;;;;;;4968208;28;20031;-68
2021/11/09 04:07:02;;;;;;;46.03;24.92;;;;;;;;;;4966063;28;20035;-68
2021/11/09 04:09:39;;;;;;;50.50;26.02;;;;;;;;;;4968636;28;20030;-68
2021/11/09 04:15:06;;;;;;;53.42;26.23;;;;;;;;;;4969245;28;20069;-68
2021/11/09 04:21:06;;;;;;;44.97;28.35;;;;;;;;;;4965455;28;20052;-68
2021/11/09 04:28:22;;;;;;;41.08;26.98;;;;;;;;;;4969224;28;20027;-68
2021/11/09 05:08:55;;;;;;;53.72;26.02;;;;;;;;;;4973008;28;20084;-67
2021/11/09 05:11:21;;;;;;;47.08;25.45;;;;;;;;;;4972337;28;20061;-67
2021/11/09 05:13:47;;;;;;;43.20;24.83;;;;;;;;;;4972580;28;20034;-67
2021/11/09 05:16:13;;;;;;;46.55;25.48;;;;;;;;;;4974539;28;20030;-67
2021/11/09 05:18:39;;;;;;;59.15;28.88;;;;;;;;;;4973107;28;20455;-67
2021/11/09 05:21:05;;;;;;;47.03;26.98;;;;;;;;;;4973663;28;20093;-68
2021/11/09 05:23:32;;;;;;;44.25;26.50;;;;;;;;;;4973284;28;20162;-68
2021/11/09 05:25:58;;;;;;;59.15;29.83;;;;;;;;;;4968912;28;20033;-67
2021/11/09 05:28:25;;;;;;;57.33;29.42;;;;;;;;;;4972349;28;20461;-68
2021/11/09 05:30:52;;;;;;;46.15;28.63;;;;;;;;;;4973233;28;20459;-67
2021/11/09 05:33:19;;;;;;;49.45;28.58;;;;;;;;;;4972213;28;20463;-67
2021/11/09 05:35:45;;;;;;;45.53;27.27;;;;;;;;;;4973076;28;20031;-67
2021/11/09 05:38:14;;;;;;;55.67;30.35;;;;;;;;;;4972988;28;20034;-67
2021/11/09 05:40:41;;;;;;;51.60;29.65;;;;;;;;;;4969932;28;20044;-68
2021/11/09 05:43:08;;;;;;;44.92;29.30;;;;;;;;;;4972623;28;20423;-68
2021/11/09 05:45:35;;;;;;;51.85;30.13;;;;;;;;;;4972587;28;20406;-67
2021/11/09 05:48:01;;;;;;;52.45;29.40;;;;;;;;;;4972964;28;20529;-68
2021/11/09 05:50:27;;;;;;;48.63;28.55;;;;;;;;;;4973143;28;20404;-68
2021/11/09 05:52:54;;;;;;;45.95;28.75;;;;;;;;;;4970055;28;20035;-68
2021/11/09 05:55:20;;;;;;;45.75;28.17;;;;;;;;;;4972950;28;20030;-67
2021/11/09 05:57:47;;;;;;;51.33;29.27;;;;;;;;;;4971176;28;20054;-68
2021/11/09 06:00:14;;;;;;;51.97;28.55;;;;;;;;;;4971959;28;20026;-68
2021/11/09 06:02:40;;;;;;;54.88;29.60;;;;;;;;;;4968783;28;20042;-67
2021/11/09 06:05:06;;;;;;;50.85;29.05;;;;;;;;;;4970393;28;20023;-68
2021/11/09 06:07:33;;;;;;;50.63;29.67;;;;;;;;;;4973664;28;20082;-67
2021/11/09 06:09:59;;;;;;;50.58;29.88;;;;;;;;;;4970979;28;20046;-68
2021/11/09 06:12:25;;;;;;;50.53;29.90;;;;;;;;;;4974066;28;20023;-67
2021/11/09 06:14:51;;;;;;;47.35;28.02;;;;;;;;;;4968350;28;20035;-68
2021/11/09 06:17:17;;;;;;;47.85;27.23;;;;;;;;;;4971353;28;20034;-68
2021/11/09 06:19:43;;;;;;;45.38;28.23;;;;;;;;;;4966204;28;20035;-67
2021/11/09 06:22:09;;;;;;;50.60;28.00;;;;;;;;;;4968465;28;20047;-68
2021/11/09 06:24:35;;;;;;;45.03;27.50;;;;;;;;;;4969577;28;20039;-68
2021/11/09 06:27:01;;;;;;;49.83;28.25;;;;;;;;;;4968684;28;20027;-67
2021/11/09 06:29:27;;;;;;;54.42;30.42;;;;;;;;;;4969443;28;20113;-67
2021/11/09 06:31:53;;;;;;;43.10;27.85;;;;;;;;;;4970204;28;20511;-68
2021/11/09 06:34:19;;;;;;;46.92;29.05;;;;;;;;;;4970481;28;20027;-68
2021/11/09 06:36:46;;;;;;;46.75;28.13;;;;;;;;;;4969867;28;20496;-67
2021/11/09 06:39:12;;;;;;;48.80;32.08;;;;;;;;;;4969589;28;20027;-67
2021/11/09 06:41:38;;;;;;;49.45;30.23;;;;;;;;;;4970482;28;20130;-68
2021/11/09 06:44:05;;;;;;;50.67;29.65;;;;;;;;;;4964437;28;20023;-68
2021/11/09 06:46:31;;;;;;;53.92;28.55;;;;;;;;;;4970770;28;20486;-67
2021/11/09 06:48:57;;;;;;;49.97;28.88;;;;;;;;;;4969965;28;20023;-67
2021/11/09 06:51:23;;;;;;;45.65;28.70;;;;;;;;;;4970280;28;20486;-67
2021/11/09 06:53:49;;;;;;;54.72;29.92;;;;;;;;;;4968761;28;20039;-67
2021/11/09 06:56:15;;;;;;;51.25;29.38;;;;;;;;;;5057209;23;20440;-67
2021/11/09 06:58:41;;;;;;;42.28;27.27;;;;;;;;;;4982960;28;20421;-68
2021/11/09 07:01:07;;;;;;;46.03;27.17;;;;;;;;;;4986766;28;20034;-67
2021/11/09 07:03:34;;;;;;;45.45;28.50;;;;;;;;;;4980960;28;20033;-67
2021/11/09 07:06:01;;;;;;;48.40;29.52;;;;;;;;;;4998761;28;20030;-67
2021/11/09 07:08:27;;;;;;;42.58;26.77;;;;;;;;;;4981230;28;20022;-67
2021/11/09 07:10:53;;;;;;;55.00;30.00;;;;;;;;;;4986134;28;20334;-67
2021/11/09 07:13:19;;;;;;;48.75;27.67;;;;;;;;;;4985647;28;20081;-67
2021/11/09 07:15:45;;;;;;;51.50;27.27;;;;;;;;;;4986007;28;20091;-67
2021/11/09 07:18:12;;;;;;;38.35;25.23;;;;;;;;;;5003265;28;20093;-67
2021/11/09 07:20:38;;;;;;;43.75;26.38;;;;;;;;;;4987352;28;20026;-67
2021/11/09 07:23:05;;;;;;;43.10;26.92;;;;;;;;;;4970452;28;20033;-67
2021/11/09 07:25:31;;;;;;;44.90;25.60;;;;;;;;;;4988610;28;20117;-67
2021/11/09 07:27:58;;;;;;;43.05;25.40;;;;;;;;;;4981695;28;20026;-67
2021/11/09 07:30:28;;;;;;;43.28;26.65;;;;;;;;;;4988021;28;20031;-67
2021/11/09 07:32:55;;;;;;;46.05;25.00;;;;;;;;;;4984469;28;20485;-67
2021/11/09 07:35:21;;;;;;;45.33;25.50;;;;;;;;;;5004507;28;20547;-67
2021/11/09 07:37:47;;;;;;;36.63;23.00;;;;;;;;;;4972857;28;20038;-67
2021/11/09 07:40:14;;;;;;;46.67;23.95;;;;;;;;;;4990187;28;20042;-67
2021/11/09 07:42:49;;;;;;;49.33;25.58;;;;;;;;;;4988416;28;20392;-67
2021/11/09 07:45:18;;;;;;;44.53;26.45;;;;;;;;;;4990224;28;20097;-67
2021/11/09 07:47:44;;;;;;;49.45;25.17;;;;;;;;;;4970300;28;20085;-67
2021/11/09 07:50:11;;;;;;;44.75;25.10;;;;;;;;;;4987910;28;20467;-66
2021/11/09 07:52:37;;;;;;;44.83;25.38;;;;;;;;;;4989531;28;20036;-67
2021/11/09 07:55:06;;;;;;;44.47;24.67;;;;;;;;;;4987632;28;20026;-67
2021/11/09 07:57:48;;;;;;;46.58;24.10;;;;;;;;;;4983526;28;20119;-67
2021/11/09 08:00:24;;;;;;;41.22;24.13;;;;;;;;;;4984107;28;20519;-67
2021/11/09 08:08:16;;;;;;;46.90;22.88;;;;;;;;;;4985710;28;20023;-67
2021/11/09 08:10:42;;;;;;;41.63;23.83;;;;;;;;;;4976542;28;20031;-67
2021/11/09 08:13:09;;;;;;;42.97;24.63;;;;;;;;;;4987065;28;20044;-67
2021/11/09 08:15:35;;;;;;;42.88;24.73;;;;;;;;;;4986468;28;20077;-67
2021/11/09 08:18:01;;;;;;;45.25;24.33;;;;;;;;;;4983411;28;20034;-67
2021/11/09 08:20:27;;;;;;;49.92;27.23;;;;;;;;;;4987525;28;20027;-67
2021/11/09 08:22:54;;;;;;;46.00;24.42;;;;;;;;;;5000618;28;20465;-67
2021/11/09 08:25:20;;;;;;;57.28;26.70;;;;;;;;;;4989381;28;20404;-67
2021/11/09 08:27:46;;;;;;;44.35;26.52;;;;;;;;;;4982144;28;20034;-67
2021/11/09 08:30:13;;;;;;;42.95;25.10;;;;;;;;;;4986856;28;20121;-67
2021/11/09 08:32:39;;;;;;;49.03;26.42;;;;;;;;;;4983697;28;20038;-67
2021/11/09 08:35:06;;;;;;;58.40;27.02;;;;;;;;;;4978265;28;20041;-67
2021/11/09 08:37:32;;;;;;;49.92;27.08;;;;;;;;;;4986007;28;20109;-68
2021/11/09 08:40:03;;;;;;;43.65;24.80;;;;;;;;;;4984859;28;20026;-67
2021/11/09 08:42:35;;;;;;;39.22;24.55;;;;;;;;;;4988105;28;20045;-68
2021/11/09 08:45:09;;;;;;;45.83;25.27;;;;;;;;;;4968538;28;20432;-67
2021/11/09 08:47:38;;;;;;;39.47;24.23;;;;;;;;;;4986257;28;20042;-68
2021/11/09 08:50:05;;;;;;;45.60;25.40;;;;;;;;;;5007183;28;20018;-67
2021/11/09 08:52:33;;;;;;;43.60;25.42;;;;;;;;;;4984909;28;20505;-67
2021/11/09 08:58:02;;;;;;;45.10;25.55;;;;;;;;;;4983668;28;20498;-67
2021/11/09 09:05:58;;;;;;;44.05;24.83;;;;;;;;;;4981893;28;20089;-68
2021/11/09 09:08:24;;;;;;;50.70;25.92;;;;;;;;;;4963275;28;20030;-67
2021/11/09 09:10:50;;;;;;;48.22;28.27;;;;;;;;;;4988427;28;20026;-68
2021/11/09 09:13:16;;;;;;;48.08;27.58;;;;;;;;;;4987781;28;20030;-68
2021/11/09 09:15:42;;;;;;;49.38;26.80;;;;;;;;;;4968895;28;20424;-67
2021/11/09 09:18:09;;;;;;;41.55;26.50;;;;;;;;;;5009589;28;20092;-67
2021/11/09 09:20:41;;;;;;;54.22;27.77;;;;;;;;;;5002288;28;20046;-68
2021/11/09 09:23:16;;;;;;;51.58;30.48;;;;;;;;;;4997446;28;20113;-68
2021/11/09 09:31:31;;;;;;;60.45;33.63;;;;;;;;;;4941464;28;20506;-68
2021/11/09 09:53:55;;;;;;;50.13;27.98;;;;;;;;;;4987326;28;20065;-67
2021/11/09 09:56:24;;;;;;;48.85;27.48;;;;;;;;;;4987409;28;20401;-68
2021/11/09 09:58:51;;;;;;;55.30;30.50;;;;;;;;;;4966438;28;20686;-68
2021/11/09 10:01:18;;;;;;;55.63;32.92;;;;;;;;;;4987832;28;20413;-68
2021/11/09 10:03:44;;;;;;;50.05;29.13;;;;;;;;;;4987078;28;20023;-68
2021/11/09 10:06:10;;;;;;;49.58;31.42;;;;;;;;;;4972222;28;20429;-68
2021/11/09 10:08:51;;;;;;;52.67;30.38;;;;;;;;;;4984976;28;20026;-67
2021/11/09 10:11:28;;;;;;;58.60;30.93;;;;;;;;;;4990978;28;20029;-68
2021/11/09 10:13:54;;;;;;;56.45;32.00;;;;;;;;;;4974018;28;20096;-67
2021/11/09 10:16:20;;;;;;;64.22;32.45;;;;;;;;;;4992208;28;20080;-68
2021/11/09 10:18:46;;;;;;;49.70;28.88;;;;;;;;;;4995890;28;20045;-68
2021/11/09 10:21:12;;;;;;;48.10;28.63;;;;;;;;;;4991641;28;20041;-67
2021/11/09 10:23:39;;;;;;;57.25;30.15;;;;;;;;;;4988663;28;20041;-68
2021/11/09 10:26:12;;;;;;;48.92;28.73;;;;;;;;;;4987364;28;20077;-67
2021/11/09 10:28:38;;;;;;;53.75;29.25;;;;;;;;;;4985312;28;20109;-68
2021/11/09 10:31:07;;;;;;;51.75;30.08;;;;;;;;;;4990455;28;20038;-67
2021/11/09 10:33:40;;;;;;;54.75;28.50;;;;;;;;;;4984868;28;20026;-67
2021/11/09 10:36:29;;;;;;;48.33;28.35;;;;;;;;;;4988704;28;20034;-67
2021/11/09 10:39:13;;;;;;;47.53;28.38;;;;;;;;;;4979270;28;20030;-67
2021/11/09 10:41:39;;;;;;;48.30;28.15;;;;;;;;;;4985778;28;20527;-68
2021/11/09 10:44:09;;;;;;;46.00;30.40;;;;;;;;;;4989956;28;20033;-67
2021/11/09 10:49:11;;;;;;;55.60;31.70;;;;;;;;;;4324985;26;20054;-67
2021/11/09 10:51:53;;;;;;;49.17;32.03;;;;;;;;;;4988433;28;20161;-67
2021/11/09 10:54:46;;;;;;;62.00;33.45;;;;;;;;;;4987124;28;20441;-67
2021/11/09 10:57:19;;;;;;;52.15;31.23;;;;;;;;;;4986705;28;20042;-67
2021/11/09 11:05:25;;;;;;;59.85;32.78;;;;;;;;;;4965348;28;20038;-67
2021/11/09 11:07:53;;;;;;;53.47;33.75;;;;;;;;;;4964615;28;20227;-67
2021/11/09 11:10:26;;;;;;;52.20;32.53;;;;;;;;;;4965520;28;20092;-67
2021/11/09 11:12:53;;;;;;;48.95;31.80;;;;;;;;;;4963398;28;20027;-67
2021/11/09 11:15:20;;;;;;;57.45;34.63;;;;;;;;;;4951217;28;20529;-67
2021/11/09 11:17:47;;;;;;;54.90;34.83;;;;;;;;;;4962977;28;20126;-68
2021/11/09 11:20:13;;;;;;;56.15;35.60;;;;;;;;;;4965470;28;20074;-68
2021/11/09 11:22:40;;;;;;;63.13;36.45;;;;;;;;;;4963647;28;20031;-68
2021/11/09 11:25:07;;;;;;;55.08;36.55;;;;;;;;;;4963426;28;20023;-67
2021/11/09 11:27:34;;;;;;;51.75;35.00;;;;;;;;;;4965910;28;21061;-67
2021/11/09 11:30:01;;;;;;;57.00;35.15;;;;;;;;;;4960518;28;20284;-67
2021/11/09 11:32:29;;;;;;;57.40;35.72;;;;;;;;;;4964360;28;20065;-68
2021/11/09 11:34:55;;;;;;;58.60;35.03;;;;;;;;;;4967939;28;20045;-67
2021/11/09 11:37:22;;;;;;;57.67;35.97;;;;;;;;;;4968854;28;20085;-67
2021/11/09 11:39:51;;;;;;;62.05;34.70;;;;;;;;;;4944278;28;20515;-67
2021/11/09 11:42:18;;;;;;;82.90;37.13;;;;;;;;;;4973366;28;20054;-68
2021/11/09 11:44:45;;;;;;;60.83;36.75;;;;;;;;;;4973846;28;20058;-67
2021/11/09 11:47:11;;;;;;;56.00;36.72;;;;;;;;;;4975588;28;20022;-67
2021/11/09 11:49:40;;;;;;;56.85;36.53;;;;;;;;;;4964970;28;20085;-67
2021/11/09 11:52:07;;;;;;;57.85;38.03;;;;;;;;;;4972479;28;20038;-69
2021/11/09 11:54:38;;;;;;;61.47;38.35;;;;;;;;;;4976555;28;20026;-68
2021/11/09 11:57:05;;;;;;;61.30;37.30;;;;;;;;;;4961201;28;20030;-68
2021/11/09 11:59:34;;;;;;;64.47;37.25;;;;;;;;;;4970209;28;20031;-68
2021/11/09 12:02:01;;;;;;;59.92;39.92;;;;;;;;;;4974280;28;20042;-68
2021/11/09 12:04:37;;;;;;;64.47;39.13;;;;;;;;;;4983099;28;20392;-67
2021/11/09 12:07:03;;;;;;;65.18;39.90;;;;;;;;;;4967849;28;20022;-67
2021/11/09 12:09:32;;;;;;;64.10;39.45;;;;;;;;;;4966038;28;20039;-68
2021/11/09 12:11:58;;;;;;;67.88;41.25;;;;;;;;;;4973798;28;20034;-68
2021/11/09 12:14:25;;;;;;;68.43;40.72;;;;;;;;;;4984681;28;20046;-68
2021/11/09 12:16:52;;;;;;;68.75;39.63;;;;;;;;;;4977794;28;20323;-68
2021/11/09 12:19:38;;;;;;;62.92;37.08;;;;;;;;;;4971439;28;20401;-67
2021/11/09 12:22:15;;;;;;;73.82;41.10;;;;;;;;;;4952843;28;20045;-68
2021/11/09 12:24:58;;;;;;;60.58;38.42;;;;;;;;;;4972578;28;20027;-67
2021/11/09 12:27:32;;;;;;;69.57;40.88;;;;;;;;;;4949652;28;20039;-67
2021/11/09 12:29:59;;;;;;;70.60;41.55;;;;;;;;;;4964079;28;20074;-68
2021/11/09 12:32:33;;;;;;;66.97;42.22;;;;;;;;;;4951339;28;20125;-68
2021/11/09 12:35:03;;;;;;;76.60;39.72;;;;;;;;;;4961588;28;20068;-67
2021/11/09 12:37:40;;;;;;;70.47;40.22;;;;;;;;;;4970187;28;20031;-67
2021/11/09 12:40:25;;;;;;;74.40;42.10;;;;;;;;;;4967418;28;20031;-68
2021/11/09 12:43:00;;;;;;;68.53;42.50;;;;;;;;;;4962241;28;20035;-68
2021/11/09 12:45:30;;;;;;;85.22;45.22;;;;;;;;;;4964575;28;20055;-67
2021/11/09 12:48:06;;;;;;;91.78;51.45;;;;;;;;;;4962315;28;20592;-68
2021/11/09 12:50:33;;;;;;;83.22;52.30;;;;;;;;;;4943647;28;20097;-67
2021/11/09 12:53:09;;;;;;;91.20;53.53;;;;;;;;;;4965253;28;20042;-68
2021/11/09 12:55:36;;;;;;;93.00;49.75;;;;;;;;;;4962393;28;21476;-68
2021/11/09 12:58:15;;;;;;;98.68;54.47;;;;;;;;;;4963399;28;20073;-68
2021/11/09 13:00:46;;;;;;;103.60;54.20;;;;;;;;;;4965146;28;20038;-68
2021/11/09 13:03:34;;;;;;;94.13;52.30;;;;;;;;;;4962350;28;20031;-68
2021/11/09 13:06:17;;;;;;;93.07;53.03;;;;;;;;;;4951360;28;20524;-73
2021/11/09 13:09:36;;;;;;;79.80;50.10;;;;;;;;;;4950523;28;20427;-73
2021/11/09 13:11:57;;;;;;;77.38;49.10;;;;;;;;;;4960397;28;20027;-74
2021/11/09 13:14:30;;;;;;;79.95;46.50;;;;;;;;;;4988491;28;20116;-73
2021/11/09 13:16:57;;;;;;;75.78;44.55;;;;;;;;;;4981579;28;20069;-74
2021/11/09 13:19:36;;;;;;;75.57;42.00;;;;;;;;;;4976886;28;20050;-74
2021/11/09 13:22:07;;;;;;;68.50;42.08;;;;;;;;;;4970969;28;20019;-73
2021/11/09 13:24:35;;;;;;;70.88;41.60;;;;;;;;;;4987470;28;20420;-74
2021/11/09 13:27:01;;;;;;;66.45;39.25;;;;;;;;;;4976515;28;20272;-74
2021/11/09 13:29:28;;;;;;;73.10;41.60;;;;;;;;;;4975059;28;20086;-74
2021/11/09 13:31:54;;;;;;;82.40;40.17;;;;;;;;;;4975507;28;20058;-74
2021/11/09 13:34:23;;;;;;;64.90;39.60;;;;;;;;;;4978922;28;20114;-74
2021/11/09 13:36:54;;;;;;;65.07;38.47;;;;;;;;;;4963231;28;20046;-74
2021/11/09 13:39:20;;;;;;;62.92;39.45;;;;;;;;;;4981129;28;20042;-75
2021/11/09 13:41:48;;;;;;;62.42;39.45;;;;;;;;;;4972955;28;20097;-74
2021/11/09 13:44:15;;;;;;;62.30;38.63;;;;;;;;;;4969676;28;20023;-74
2021/11/09 13:46:43;;;;;;;72.63;40.92;;;;;;;;;;4981237;28;20030;-67
2021/11/09 13:49:12;;;;;;;67.43;38.03;;;;;;;;;;4973520;28;20018;-67
2021/11/09 13:51:50;;;;;;;65.93;39.90;;;;;;;;;;4973230;28;20041;-67
2021/11/09 13:54:23;;;;;;;59.80;38.10;;;;;;;;;;4969238;28;20414;-68
2021/11/09 13:56:52;;;;;;;69.22;39.00;;;;;;;;;;4976405;28;20041;-67
2021/11/09 13:59:30;;;;;;;67.38;40.80;;;;;;;;;;4982504;28;20043;-68
2021/11/09 14:02:07;;;;;;;64.38;39.55;;;;;;;;;;4973500;28;20037;-68
2021/11/09 14:12:40;;;;;;;59.60;38.70;;;;;;;;;;4980787;28;20498;-68
2021/11/09 14:17:53;;;;;;;68.63;37.80;;;;;;;;;;4980215;28;20088;-68
2021/11/09 14:20:22;;;;;;;53.13;34.85;;;;;;;;;;4971794;28;20525;-68
2021/11/09 14:22:59;;;;;;;68.50;35.72;;;;;;;;;;4973788;28;20030;-68
2021/11/09 14:25:26;;;;;;;61.53;35.63;;;;;;;;;;4966929;28;20409;-67
2021/11/09 14:27:52;;;;;;;55.42;34.63;;;;;;;;;;4972819;28;20019;-68
2021/11/09 14:30:20;;;;;;;54.78;34.03;;;;;;;;;;4972453;28;20030;-68
2021/11/09 14:32:47;;;;;;;55.33;35.70;;;;;;;;;;4971420;28;20022;-68
2021/11/09 14:35:17;;;;;;;53.80;34.50;;;;;;;;;;4978971;28;20034;-68
2021/11/09 14:37:45;;;;;;;61.10;37.10;;;;;;;;;;4980792;28;20050;-68
2021/11/09 14:40:13;;;;;;;55.85;35.20;;;;;;;;;;4957618;28;20501;-68
2021/11/09 14:45:49;;;;;;;55.67;35.78;;;;;;;;;;4965438;28;20030;-68
2021/11/09 14:48:17;;;;;;;57.53;36.10;;;;;;;;;;4959155;28;20075;-68
2021/11/09 14:53:43;;;;;;;60.67;33.50;;;;;;;;;;4964794;28;20571;-68
2021/11/09 14:56:12;;;;;;;51.33;35.75;;;;;;;;;;4963985;28;21032;-68
2021/11/09 14:58:39;;;;;;;52.13;35.17;;;;;;;;;;4962154;28;20349;-68
2021/11/09 15:01:26;;;;;;;63.28;35.42;;;;;;;;;;4965787;28;20046;-68
2021/11/09 15:03:55;;;;;;;55.70;34.25;;;;;;;;;;4959489;28;20340;-68
2021/11/09 15:09:33;;;;;;;50.00;34.45;;;;;;;;;;4962299;28;20035;-68
2021/11/09 15:25:26;;;;;;;59.90;37.00;;;;;;;;;;4970250;28;20057;-69
2021/11/09 15:28:01;;;;;;;51.60;35.23;;;;;;;;;;4940986;28;20386;-69
2021/11/09 15:33:36;;;;;;;51.00;33.88;;;;;;;;;;4901655;29;20553;-69
2021/11/09 15:36:13;;;;;;;50.55;35.08;;;;;;;;;;4905904;29;20829;-69
2021/11/09 15:38:39;;;;;;;55.08;35.40;;;;;;;;;;4930503;28;20114;-68
2021/11/09 15:41:05;;;;;;;57.72;35.05;;;;;;;;;;4964278;28;20141;-69
2021/11/09 15:43:33;;;;;;;51.60;34.97;;;;;;;;;;4962751;28;20070;-68
2021/11/09 15:46:00;;;;;;;55.15;34.95;;;;;;;;;;4962678;28;20085;-68
2021/11/09 15:48:27;;;;;;;54.05;36.08;;;;;;;;;;4964483;28;20046;-68
2021/11/09 15:50:53;;;;;;;51.05;36.58;;;;;;;;;;4961131;28;20039;-68
2021/11/09 15:53:19;;;;;;;47.75;33.95;;;;;;;;;;4959421;28;20114;-69
2021/11/09 15:55:46;;;;;;;50.47;33.95;;;;;;;;;;4959460;28;20301;-68
2021/11/09 15:58:12;;;;;;;51.05;32.80;;;;;;;;;;4963275;28;20057;-68
2021/11/09 16:00:39;;;;;;;57.47;34.80;;;;;;;;;;4946752;28;20494;-69
2021/11/09 16:03:05;;;;;;;47.20;32.85;;;;;;;;;;4945488;28;20041;-68
2021/11/09 16:05:32;;;;;;;43.97;31.73;;;;;;;;;;4949546;28;20113;-68
2021/11/09 16:07:59;;;;;;;49.00;33.13;;;;;;;;;;4952058;28;20023;-68
2021/11/09 16:10:27;;;;;;;48.83;32.92;;;;;;;;;;4964027;28;20030;-68
2021/11/09 16:12:53;;;;;;;47.97;34.25;;;;;;;;;;4962561;28;20018;-68
2021/11/09 16:15:19;;;;;;;48.30;33.20;;;;;;;;;;4967313;28;20031;-68
2021/11/09 16:17:45;;;;;;;47.35;35.65;;;;;;;;;;4965833;28;20113;-68
2021/11/09 16:20:12;;;;;;;49.72;31.98;;;;;;;;;;4968222;28;20497;-69
2021/11/09 16:22:39;;;;;;;47.05;32.20;;;;;;;;;;4970570;28;20105;-69
2021/11/09 16:25:06;;;;;;;51.92;33.80;;;;;;;;;;4963243;28;20031;-68
2021/11/09 16:27:33;;;;;;;41.85;31.33;;;;;;;;;;4950864;28;20085;-69
2021/11/09 16:30:10;;;;;;;42.47;33.13;;;;;;;;;;4967139;28;20026;-68
2021/11/09 16:32:38;;;;;;;45.78;31.60;;;;;;;;;;4968309;28;20109;-69
2021/11/09 16:37:48;;;;;;;46.53;32.60;;;;;;;;;;4965999;28;20408;-68
2021/11/09 16:40:19;;;;;;;49.95;33.88;;;;;;;;;;4955644;28;20033;-68
2021/11/09 16:42:49;;;;;;;47.10;31.08;;;;;;;;;;4953590;28;20034;-69
2021/11/09 16:45:21;;;;;;;46.28;32.50;;;;;;;;;;4968606;28;20027;-69
2021/11/09 16:47:47;;;;;;;51.33;31.73;;;;;;;;;;4953521;28;20026;-69
2021/11/09 16:52:40;;;;;;;45.65;30.95;;;;;;;;;;4969322;28;20497;-69
2021/11/09 16:57:59;;;;;;;47.33;33.22;;;;;;;;;;4971461;28;20097;-69
2021/11/09 18:22:26;;;;;;;47.70;30.48;;;;;;;;;;4966941;28;20031;-69
2021/11/09 18:24:52;;;;;;;45.55;29.10;;;;;;;;;;4967308;28;20050;-68
2021/11/09 18:27:18;;;;;;;47.60;30.77;;;;;;;;;;4965097;28;20060;-69
2021/11/09 18:29:44;;;;;;;53.03;28.92;;;;;;;;;;4965936;28;20057;-69
2021/11/09 18:32:11;;;;;;;53.75;29.30;;;;;;;;;;4966217;28;20794;-68
2021/11/09 18:34:43;;;;;;;43.60;28.20;;;;;;;;;;4965388;28;20158;-69
2021/11/09 18:37:09;;;;;;;56.42;30.38;;;;;;;;;;4976223;28;20026;-69
2021/11/09 18:39:36;;;;;;;43.75;26.67;;;;;;;;;;4965062;28;20475;-68
2021/11/09 18:42:02;;;;;;;51.15;28.95;;;;;;;;;;4970634;28;20019;-69
2021/11/09 18:44:28;;;;;;;47.53;27.75;;;;;;;;;;4965573;28;20050;-69
2021/11/09 18:46:55;;;;;;;44.22;28.70;;;;;;;;;;4971160;28;20023;-69
2021/11/09 18:49:21;;;;;;;44.17;27.20;;;;;;;;;;4967291;28;20459;-69